Flight Track Log - Related Links

Times and Time Zones

All times are in EDT time to prevent confusion due to time zone crossing. See the ERR734 flight status page for this flight to view local times or setup timezone preferences in your user account.

Time Position Orientation Groundspeed Altitude Reporting Facility
EDT Latitude Longitude Course Direction KTS MPH feet Rate Location/Type
Sun 01:09:27 PM 64.7500 -147.9500 270° West 140 161 4,300  Level Anchorage Center
Sun 01:10:26 PM 64.7667 -148.0500 291° West 150 173 6,100 1,850 Climbing Anchorage Center
Sun 01:11:27 PM 64.7667 -148.1500 270° West 160 184 8,000 1,736 Climbing Anchorage Center
Sun 01:12:27 PM 64.7667 -148.2500 270° West 170 196 9,600 1,650 Climbing Anchorage Center
Sun 01:13:27 PM 64.7667 -148.3500 270° West 170 196 11,300 1,600 Climbing Anchorage Center
Sun 01:14:00 PM 64.8000 -148.7600 270° West  Level FlightAware Approximate
Sun 01:14:27 PM 64.7667 -148.4667 270° West 170 196 12,800  Level Anchorage Center
Sun 01:15:27 PM 64.7833 -148.5667 291° West 170 196 14,400 1,700 Climbing Anchorage Center
Sun 01:16:27 PM 64.7833 -148.6833 270° West 170 196 16,200 1,550 Climbing Anchorage Center
Sun 01:17:27 PM 64.7833 -148.8000 270° West 180 207 17,500 1,289 Climbing Anchorage Center
Sun 01:18:28 PM 64.7833 -148.9167 270° West 180 207 18,800 1,190 Climbing Anchorage Center
Sun 01:19:28 PM 64.7833 -149.0500 270° West 190 219 19,900 1,200 Climbing Anchorage Center
Sun 01:20:28 PM 64.7833 -149.1667 270° West 190 219 21,200 1,150 Climbing Anchorage Center
Sun 01:21:28 PM 64.8000 -149.2833 289° West 190 219 22,200 950 Climbing Anchorage Center
Sun 01:22:28 PM 64.8000 -149.4167 270° West 190 219 23,100 900 Climbing Anchorage Center
Sun 01:23:28 PM 64.8000 -149.5500 270° West 210 242 24,000 450 Climbing Anchorage Center
Sun 01:24:28 PM 64.8000 -149.7000 270° West 230 265 24,000  Level Anchorage Center
Sun 01:25:29 PM 64.8000 -149.8500 270° West 240 276 24,000  Level Anchorage Center
Sun 01:26:28 PM 64.8000 -150.0167 270° West 240 276 24,000  Level Anchorage Center
Sun 01:27:28 PM 64.8000 -150.1667 270° West 240 276 24,000  Level Anchorage Center
Sun 01:28:28 PM 64.8000 -150.3333 270° West 240 276 24,000  Level Anchorage Center
Sun 01:29:29 PM 64.8167 -150.5000 283° West 250 288 24,000  Level Anchorage Center
Sun 01:30:29 PM 64.8167 -150.6500 270° West 240 276 24,000  Level Anchorage Center
Sun 01:31:29 PM 64.8167 -150.8167 270° West 250 288 24,000  Level Anchorage Center
Sun 01:32:29 PM 64.8167 -150.9833 270° West 250 288 24,000  Level Anchorage Center
Sun 01:33:29 PM 64.8167 -151.1500 270° West 250 288 24,000  Level Anchorage Center
Sun 01:34:29 PM 64.8167 -151.3167 270° West 260 299 24,000  Level Anchorage Center
Sun 01:35:29 PM 64.8167 -151.4667 270° West 250 288 24,000  Level Anchorage Center
Sun 01:36:30 PM 64.8167 -151.6333 270° West 250 288 24,000  Level Anchorage Center
Sun 01:37:30 PM 64.8167 -151.8000 270° West 250 288 24,000  Level Anchorage Center
Sun 01:38:30 PM 64.8167 -151.9500 270° West 250 288 24,000  Level Anchorage Center
Sun 01:39:30 PM 64.8167 -152.1000 270° West 240 276 24,000  Level Anchorage Center
Sun 01:40:30 PM 64.8167 -152.2667 270° West 240 276 24,000  Level Anchorage Center
Sun 01:41:30 PM 64.8167 -152.4167 270° West 240 276 24,000  Level Anchorage Center
Sun 01:42:30 PM 64.8167 -152.5833 270° West 250 288 24,000  Level Anchorage Center
Sun 01:43:30 PM 64.8167 -152.7500 270° West 250 288 24,000  Level Anchorage Center
Sun 01:44:30 PM 64.8167 -152.9000 270° West 250 288 24,000  Level Anchorage Center
Sun 01:45:30 PM 64.8000 -153.0667 257° West 240 276 24,000  Level Anchorage Center
Sun 01:46:30 PM 64.8167 -153.2333 283° West 250 288 24,000  Level Anchorage Center
Sun 01:47:31 PM 64.8000 -153.3833 255° West 240 276 24,000  Level Anchorage Center
Sun 01:48:31 PM 64.8000 -153.5500 270° West 240 276 24,000  Level Anchorage Center
Sun 01:49:31 PM 64.8000 -153.7167 270° West 250 288 24,000  Level Anchorage Center
Sun 01:50:31 PM 64.8000 -153.8667 270° West 250 288 24,000  Level Anchorage Center
Sun 01:51:31 PM 64.8000 -154.0333 270° West 250 288 24,000 -150 Level Anchorage Center
Sun 01:52:31 PM 64.8000 -154.2000 270° West 250 288 23,700 -900 Descending Anchorage Center
Sun 01:53:31 PM 64.8000 -154.3667 270° West 260 299 22,200 -1,537 Descending Anchorage Center
Sun 01:54:32 PM 64.7833 -154.5333 257° West 250 288 20,600 -1,537 Descending Anchorage Center
Sun 01:55:32 PM 64.7833 -154.7000 270° West 250 288 19,100 -1,350 Descending Anchorage Center
Sun 01:56:32 PM 64.7833 -154.8500 270° West 240 276 17,900 -1,100 Descending Anchorage Center
Sun 01:57:32 PM 64.7833 -155.0167 270° West 260 299 16,900 -1,100 Descending Anchorage Center
Sun 01:58:32 PM 64.7667 -155.1833 257° West 260 299 15,700 -1,100 Descending Anchorage Center
Sun 01:59:32 PM 64.7667 -155.3667 270° West 260 299 14,700 -1,050 Descending Anchorage Center
Sun 02:00:32 PM 64.7667 -155.5167 270° West 230 265 13,600 -1,250 Descending Anchorage Center
Sun 02:01:32 PM 64.7667 -155.6833 270° West 260 299 12,200 -1,500 Descending Anchorage Center
Sun 02:02:32 PM 64.7500 -155.8500 257° West 250 288 10,600 -1,850 Descending Anchorage Center
Sun 02:03:32 PM 64.7500 -156.0000 270° West 250 288 8,500 -2,000 Descending Anchorage Center
Sun 02:04:32 PM 64.7500 -156.1667 270° West 240 276 6,600 -1,686 Descending Anchorage Center
Sun 02:05:33 PM 64.7500 -156.3000 270° West 210 242 5,100 -1,475 Descending Anchorage Center
Sun 02:08:00 PM 64.7375 -156.5167 259° West  Level FlightAware Approximate
Sun 02:15:00 PM 64.7333 -156.9333 270° West  Level FlightAware Approximate
Sun 02:16:00 PM 64.7362 -156.9374 270° West  Level Estimated
Sun 02:17:00 PM 64.7333 -156.9333 270° West  Level FlightAware Approximate
Sun 02:18:00 PM 64.7362 -156.9374 270° West  Level Estimated
Sun 02:19:00 PM 64.7333 -156.9333 270° West  Level FlightAware Approximate
Sun 02:20:00 PM 64.7362 -156.9374 270° West  Level Estimated
Sun 02:21:00 PM 64.7333 -156.9333 270° West  Level FlightAware Approximate
Sun 02:22:00 PM 64.7362 -156.9374 270° West  Level Estimated
Sun 02:23:00 PM 64.7333 -156.9333 270° West  Level FlightAware Approximate
Sun 02:24:00 PM 64.7362 -156.9374 270° West  Level Estimated

Login

Don't have an account? Register now (free) for customized features, flight alerts, and more!